createdAt,value
2022-08-07T00:00:40.064Z,19.02
2022-08-07T00:03:08.706Z,22.77
2022-08-07T00:05:37.275Z,20.48
2022-08-07T00:08:05.125Z,18.05
2022-08-07T00:10:35.845Z,23.40
2022-08-07T00:13:23.803Z,17.73
2022-08-07T00:15:53.268Z,20.02
2022-08-07T00:18:24.357Z,18.42
2022-08-07T00:20:53.688Z,22.25
2022-08-07T00:23:21.715Z,21.83
2022-08-07T00:25:59.086Z,23.83
2022-08-07T00:28:33.723Z,21.67
2022-08-07T00:31:06.270Z,26.58
2022-08-07T00:33:40.948Z,28.77
2022-08-07T00:36:09.321Z,19.50
2022-08-07T00:38:39.115Z,19.95
2022-08-07T00:41:10.109Z,22.95
2022-08-07T00:44:01.684Z,32.83
2022-08-07T00:46:28.098Z,29.15
2022-08-07T00:48:54.735Z,28.13
2022-08-07T00:51:21.808Z,27.23
2022-08-07T00:53:55.112Z,22.85
2022-08-07T00:56:30.143Z,25.58
2022-08-07T00:58:58.395Z,23.48
2022-08-07T01:01:25.309Z,20.90
2022-08-07T01:03:57.236Z,32.58
2022-08-07T01:06:28.675Z,35.67
2022-08-07T01:08:58.355Z,39.03
2022-08-07T01:12:23.866Z,35.90
2022-08-07T01:14:15.516Z,34.28
2022-08-07T01:16:47.396Z,39.35
2022-08-07T01:19:19.043Z,45.15
2022-08-07T01:21:48.296Z,45.67
2022-08-07T01:24:18.672Z,39.53
2022-08-07T01:26:52.193Z,39.58
2022-08-07T01:29:22.068Z,43.47
2022-08-07T01:31:49.979Z,48.90
2022-08-07T01:34:18.795Z,43.95
2022-08-07T01:36:52.760Z,41.78
2022-08-07T01:39:40.886Z,39.70
2022-08-07T01:42:37.628Z,43.38
2022-08-07T01:45:10.051Z,48.65
2022-08-07T01:48:18.115Z,47.28
2022-08-07T01:50:32.801Z,36.33
2022-08-07T01:53:08.882Z,37.33
2022-08-07T01:55:39.975Z,45.20
2022-08-07T01:58:27.224Z,47.03
2022-08-07T02:01:10.295Z,42.17
2022-08-07T02:03:56.426Z,44.75
2022-08-07T02:06:31.986Z,42.28
2022-08-07T02:09:04.187Z,43.95
2022-08-07T02:12:03.442Z,40.72
2022-08-07T02:14:40.493Z,44.35
2022-08-07T02:17:10.897Z,50.03
2022-08-07T02:20:06.853Z,45.40
2022-08-07T02:22:31.711Z,49.33
2022-08-07T02:24:59.855Z,50.63
2022-08-07T02:27:34.830Z,48.63
2022-08-07T02:30:07.461Z,44.85
2022-08-07T02:33:00.137Z,48.85
2022-08-07T02:36:27.081Z,48.00
2022-08-07T02:38:15.676Z,53.80
2022-08-07T02:40:44.525Z,51.25
2022-08-07T02:43:15.529Z,47.10
2022-08-07T02:45:59.408Z,51.70
2022-08-07T02:48:29.248Z,55.22
2022-08-07T02:50:57.420Z,53.08
2022-08-07T02:53:38.340Z,56.33
2022-08-07T02:56:17.571Z,65.85
2022-08-07T02:58:54.238Z,60.35
2022-08-07T03:01:36.009Z,57.70
2022-08-07T03:04:07.154Z,60.55
2022-08-07T03:06:40.458Z,54.35
2022-08-07T03:09:11.011Z,47.10
2022-08-07T03:11:51.724Z,51.40
2022-08-07T03:14:20.199Z,55.67
2022-08-07T03:16:50.988Z,57.10
2022-08-07T03:19:20.102Z,62.42
2022-08-07T03:21:50.910Z,60.60
2022-08-07T03:24:27.629Z,54.78
2022-08-07T03:26:59.725Z,66.55
2022-08-07T03:29:33.751Z,50.97
2022-08-07T03:32:06.639Z,67.13
2022-08-07T03:34:39.518Z,67.20
2022-08-07T03:37:18.520Z,60.63
2022-08-07T03:40:13.477Z,66.25
2022-08-07T03:42:35.562Z,57.08
2022-08-07T03:45:03.585Z,57.30
2022-08-07T03:47:47.611Z,70.35
2022-08-07T03:50:23.190Z,58.38
2022-08-07T03:52:52.077Z,65.15
2022-08-07T03:55:18.951Z,65.03
2022-08-07T03:58:08.885Z,68.43
2022-08-07T04:00:36.556Z,59.13
2022-08-07T04:03:05.270Z,68.50
2022-08-07T04:05:40.872Z,69.40
2022-08-07T04:08:15.921Z,75.63
2022-08-07T04:10:53.942Z,71.35
2022-08-07T04:14:10.806Z,71.10
2022-08-07T04:16:19.861Z,75.55
2022-08-07T04:19:01.751Z,67.35
2022-08-07T04:21:33.497Z,62.78
2022-08-07T04:24:07.867Z,76.78
2022-08-07T04:26:35.121Z,62.22
2022-08-07T04:29:03.139Z,72.05
2022-08-07T04:31:38.992Z,68.57
2022-08-07T04:34:27.527Z,65.93
2022-08-07T04:37:01.231Z,62.55
2022-08-07T04:39:35.820Z,69.22
2022-08-07T04:42:04.144Z,59.40
2022-08-07T04:44:31.038Z,66.28
2022-08-07T04:47:23.447Z,68.15
2022-08-07T04:50:11.027Z,59.38
2022-08-07T04:52:53.951Z,52.75
2022-08-07T04:58:12.484Z,60.28
2022-08-07T04:59:16.963Z,63.78
2022-08-07T05:01:56.762Z,51.33
2022-08-07T05:04:36.302Z,54.65
2022-08-07T05:07:20.437Z,52.85
2022-08-07T05:10:02.849Z,41.30
2022-08-07T05:12:46.425Z,37.08
2022-08-07T05:15:26.661Z,37.15
2022-08-07T05:18:08.853Z,29.58
2022-08-07T05:20:50.825Z,22.70
2022-08-07T05:23:29.925Z,22.67
2022-08-07T05:26:13.891Z,24.05
2022-08-07T05:28:48.562Z,19.17
2022-08-07T05:31:20.337Z,15.70
2022-08-07T05:34:01.479Z,19.25
2022-08-07T05:36:35.342Z,12.95
2022-08-07T05:40:03.762Z,8.10
2022-08-07T05:42:01.209Z,8.27
2022-08-07T05:44:35.354Z,5.68
2022-08-07T05:47:18.255Z,12.18
2022-08-07T05:49:50.787Z,11.23
2022-08-07T05:52:20.389Z,4.47
2022-08-07T05:54:58.947Z,6.05
2022-08-07T05:57:37.855Z,6.18
2022-08-07T06:00:16.603Z,3.67
2022-08-07T06:02:46.614Z,4.78
2022-08-07T06:05:15.399Z,6.32
2022-08-07T06:08:13.070Z,6.82
2022-08-07T06:10:30.894Z,6.18
2022-08-07T06:12:57.827Z,6.55
2022-08-07T06:15:39.224Z,8.73
2022-08-07T06:18:12.198Z,3.50
2022-08-07T06:20:49.713Z,3.80
2022-08-07T06:24:37.791Z,7.43
2022-08-07T06:26:16.869Z,4.90
2022-08-07T06:28:54.568Z,5.70
2022-08-07T06:31:38.562Z,8.15
2022-08-07T06:34:08.470Z,4.93
2022-08-07T06:36:36.544Z,6.50
2022-08-07T06:40:15.861Z,12.52
2022-08-07T06:42:06.869Z,4.10
2022-08-07T06:44:39.763Z,8.95
2022-08-07T06:47:12.449Z,10.27
2022-08-07T06:49:51.936Z,6.00
2022-08-07T06:52:36.088Z,4.90
2022-08-07T06:55:31.841Z,14.13
2022-08-07T06:57:59.200Z,4.97
2022-08-07T07:00:31.073Z,5.05
2022-08-07T07:03:01.320Z,10.27
2022-08-07T07:06:03.135Z,3.55
2022-08-07T07:08:28.940Z,4.60
2022-08-07T07:13:56.555Z,5.05
2022-08-07T07:16:27.245Z,4.72
2022-08-07T07:19:11.185Z,4.45
2022-08-07T07:22:05.410Z,4.22
2022-08-07T07:24:38.532Z,3.75
2022-08-07T07:27:13.627Z,8.10
2022-08-07T07:30:08.772Z,7.00
2022-08-07T07:32:38.872Z,8.82
2022-08-07T07:35:08.812Z,2.95
2022-08-07T07:37:49.748Z,3.00
2022-08-07T07:40:21.125Z,6.10
2022-08-07T07:42:55.776Z,2.63
2022-08-07T07:46:38.154Z,3.42
2022-08-07T07:48:34.907Z,3.53
2022-08-07T07:51:07.756Z,2.75
2022-08-07T07:53:52.077Z,7.10
2022-08-07T07:56:29.989Z,5.47
2022-08-07T07:59:00.100Z,4.78
2022-08-07T08:02:03.776Z,8.73
2022-08-07T08:04:20.171Z,2.72
2022-08-07T08:06:53.701Z,5.63
2022-08-07T08:09:24.312Z,4.93
2022-08-07T08:12:03.060Z,3.08
2022-08-07T08:14:37.043Z,1.63
2022-08-07T08:17:56.418Z,2.90
2022-08-07T08:20:22.281Z,3.92
2022-08-07T08:23:10.385Z,3.75
2022-08-07T08:25:58.198Z,3.15
2022-08-07T08:28:37.625Z,5.72
2022-08-07T08:31:15.621Z,3.85
2022-08-07T08:33:49.649Z,5.35
2022-08-07T08:36:29.980Z,2.92
2022-08-07T08:39:01.719Z,3.40
2022-08-07T08:41:58.788Z,10.10
2022-08-07T08:44:44.728Z,4.57
2022-08-07T08:47:52.099Z,4.78
2022-08-07T08:50:39.118Z,4.38
2022-08-07T08:53:12.297Z,1.25
2022-08-07T08:55:58.543Z,4.50
2022-08-07T08:58:45.859Z,3.20
2022-08-07T09:01:22.564Z,2.25
2022-08-07T09:04:44.013Z,2.80
2022-08-07T09:07:27.142Z,4.20
2022-08-07T09:10:14.849Z,3.08
2022-08-07T09:13:02.653Z,2.20
2022-08-07T09:16:23.066Z,3.67
2022-08-07T09:19:51.731Z,5.63
2022-08-07T09:24:28.125Z,3.42
2022-08-07T09:25:32.355Z,3.08
2022-08-07T09:30:03.264Z,1.83
2022-08-07T09:31:49.263Z,1.77
2022-08-07T09:34:45.348Z,5.57
2022-08-07T09:37:53.561Z,1.83
2022-08-07T09:40:42.348Z,9.48
2022-08-07T09:44:03.357Z,3.45
2022-08-07T09:47:25.127Z,3.45
2022-08-07T09:50:00.697Z,3.58
2022-08-07T09:52:34.594Z,1.98
2022-08-07T09:55:28.951Z,2.72
2022-08-07T09:58:14.275Z,4.45
2022-08-07T10:00:50.897Z,2.45
2022-08-07T10:04:06.247Z,2.45
2022-08-07T10:06:55.521Z,2.35
2022-08-07T10:10:00.905Z,2.47
2022-08-07T10:12:52.700Z,2.22
2022-08-07T10:15:44.528Z,4.78
2022-08-07T10:18:14.711Z,2.17
2022-08-07T10:21:19.714Z,2.67
2022-08-07T10:24:10.200Z,6.93
2022-08-07T10:26:53.053Z,2.08
2022-08-07T10:29:26.557Z,3.00
2022-08-07T10:32:16.512Z,3.15
2022-08-07T10:35:25.758Z,3.15
2022-08-07T10:38:35.743Z,6.70
2022-08-07T10:41:46.895Z,2.67
2022-08-07T10:44:45.461Z,5.10
2022-08-07T10:47:53.735Z,2.47
2022-08-07T10:50:44.852Z,7.65
2022-08-07T10:53:57.171Z,7.50
2022-08-07T10:56:31.310Z,3.38
2022-08-07T10:59:21.450Z,6.47
2022-08-07T11:02:04.972Z,3.42
2022-08-07T11:05:12.918Z,2.78
2022-08-07T11:07:58.289Z,2.17
2022-08-07T11:10:59.473Z,4.82
2022-08-07T11:14:45.418Z,3.60
2022-08-07T11:16:36.432Z,2.75
2022-08-07T11:19:27.269Z,4.13
2022-08-07T11:22:37.013Z,4.43
2022-08-07T11:25:48.061Z,3.10
2022-08-07T11:28:24.671Z,2.72
2022-08-07T11:30:52.393Z,3.65
2022-08-07T11:33:54.371Z,1.55
2022-08-07T11:36:56.272Z,2.28
2022-08-07T11:39:59.964Z,2.55
2022-08-07T11:42:54.062Z,1.92
2022-08-07T11:45:49.939Z,4.80
2022-08-07T11:48:40.698Z,2.65
2022-08-07T11:51:46.949Z,7.63
2022-08-07T11:54:31.862Z,3.45
2022-08-07T11:57:58.123Z,2.70
2022-08-07T12:00:21.236Z,2.00
2022-08-07T12:02:57.926Z,7.43
2022-08-07T12:05:49.257Z,3.88
2022-08-07T12:08:25.756Z,2.63
2022-08-07T12:11:21.280Z,6.93
2022-08-07T12:14:08.564Z,1.65
2022-08-07T12:16:46.836Z,1.77
2022-08-07T12:19:56.458Z,1.33
2022-08-07T12:22:58.185Z,2.72
2022-08-07T12:26:05.323Z,1.98
2022-08-07T12:28:57.819Z,1.85
2022-08-07T12:32:01.628Z,3.13
2022-08-07T12:34:25.991Z,3.33
2022-08-07T12:36:56.926Z,3.45
2022-08-07T12:39:44.388Z,3.13
2022-08-07T12:42:17.930Z,2.45
2022-08-07T12:44:55.113Z,5.90
2022-08-07T12:47:40.551Z,2.03
2022-08-07T12:50:38.371Z,2.40
2022-08-07T12:53:17.407Z,3.20
2022-08-07T12:56:03.346Z,3.20
2022-08-07T12:58:39.224Z,6.07
2022-08-07T13:01:32.640Z,4.68
2022-08-07T13:04:09.830Z,3.35
2022-08-07T13:07:06.820Z,4.88
2022-08-07T13:10:20.026Z,1.60
2022-08-07T13:13:47.178Z,4.10
2022-08-07T13:16:36.706Z,1.15
2022-08-07T13:19:34.846Z,4.82
2022-08-07T13:25:24.318Z,4.90
2022-08-07T13:28:13.575Z,1.17
2022-08-07T13:31:01.532Z,3.75
2022-08-07T13:34:33.615Z,2.65
2022-08-07T13:36:30.796Z,4.43
2022-08-07T13:40:32.644Z,3.35
2022-08-07T13:42:28.029Z,2.42
2022-08-07T13:45:40.606Z,3.47
2022-08-07T13:48:05.562Z,1.65
2022-08-07T13:50:55.458Z,4.80
2022-08-07T13:53:36.011Z,1.38
2022-08-07T13:56:35.776Z,5.03
2022-08-07T13:59:19.662Z,2.08
2022-08-07T14:02:21.377Z,2.25
2022-08-07T14:05:04.676Z,2.17
2022-08-07T14:07:38.145Z,2.88
2022-08-07T14:10:28.235Z,3.35
2022-08-07T14:13:00.705Z,7.47
2022-08-07T14:15:39.713Z,3.42
2022-08-07T14:18:29.170Z,1.35
2022-08-07T14:21:11.797Z,2.05
2022-08-07T14:24:06.460Z,2.15
2022-08-07T14:28:11.455Z,4.05
2022-08-07T14:30:07.539Z,2.60
2022-08-07T14:32:48.216Z,5.82
2022-08-07T14:35:44.882Z,2.33
2022-08-07T14:38:09.600Z,4.07
2022-08-07T14:41:02.184Z,3.22
2022-08-07T14:43:57.492Z,4.63
2022-08-07T14:46:30.604Z,2.85
2022-08-07T14:49:56.071Z,5.85
2022-08-07T14:52:04.929Z,4.10
2022-08-07T15:00:20.631Z,2.25
2022-08-07T15:03:00.299Z,5.28
2022-08-07T15:05:54.158Z,3.38
2022-08-07T15:08:54.638Z,1.83
2022-08-07T15:14:20.853Z,2.85
2022-08-07T15:16:54.927Z,2.42
2022-08-07T15:20:30.879Z,2.42
2022-08-07T15:22:23.261Z,3.97
2022-08-07T15:28:31.011Z,4.65
2022-08-07T15:33:33.933Z,1.00
2022-08-07T15:36:05.742Z,2.63
2022-08-07T15:38:51.286Z,3.05
2022-08-07T15:42:45.114Z,2.38
2022-08-07T15:44:13.128Z,2.13
2022-08-07T15:46:49.967Z,1.48
2022-08-07T15:50:04.055Z,5.30
2022-08-07T15:52:17.231Z,1.83
2022-08-07T15:54:49.609Z,3.47
2022-08-07T15:57:39.334Z,5.15
2022-08-07T16:00:08.885Z,7.80
2022-08-07T16:02:57.681Z,6.95
2022-08-07T16:05:31.377Z,2.03
2022-08-07T16:08:30.537Z,3.03
2022-08-07T16:11:26.616Z,2.58
2022-08-07T16:14:09.680Z,1.77
2022-08-07T16:18:02.108Z,1.90
2022-08-07T16:20:33.702Z,2.72
2022-08-07T16:23:53.409Z,2.55
2022-08-07T16:26:30.864Z,4.18
2022-08-07T16:30:11.459Z,2.40
2022-08-07T16:32:34.446Z,6.68
2022-08-07T16:35:52.167Z,3.40
2022-08-07T16:39:03.192Z,4.15
2022-08-07T16:41:56.106Z,2.20
2022-08-07T16:45:14.814Z,2.00
2022-08-07T16:48:28.517Z,4.72
2022-08-07T16:51:57.664Z,10.30
2022-08-07T16:54:32.578Z,2.58
2022-08-07T16:57:00.041Z,4.40
2022-08-07T16:59:45.654Z,4.35
2022-08-07T17:02:52.314Z,4.55
2022-08-07T17:06:19.186Z,2.35
2022-08-07T17:09:09.140Z,4.82
2022-08-07T17:12:35.841Z,1.65
2022-08-07T17:15:15.945Z,2.35
2022-08-07T17:18:03.220Z,3.22
2022-08-07T17:20:37.948Z,4.25
2022-08-07T17:23:31.891Z,4.30
2022-08-07T17:26:23.253Z,5.03
2022-08-07T17:29:07.847Z,7.32
2022-08-07T17:32:03.445Z,8.82
2022-08-07T17:34:57.225Z,6.05
2022-08-07T17:38:06.771Z,5.80
2022-08-07T17:40:58.743Z,2.28
2022-08-07T17:44:41.392Z,7.97
2022-08-07T17:47:16.904Z,1.40
2022-08-07T17:50:00.985Z,4.97
2022-08-07T17:52:59.863Z,2.78
2022-08-07T17:55:56.590Z,4.70
2022-08-07T17:58:33.055Z,16.52
2022-08-07T18:01:20.693Z,6.63
2022-08-07T18:04:16.475Z,3.63
2022-08-07T18:07:19.125Z,5.13
2022-08-07T18:10:06.907Z,2.28
2022-08-07T18:12:53.255Z,2.10
2022-08-07T18:15:38.620Z,3.60
2022-08-07T18:18:47.225Z,6.05
2022-08-07T18:21:41.414Z,6.30
2022-08-07T18:24:07.251Z,3.72
2022-08-07T18:26:55.878Z,3.85
2022-08-07T18:30:07.512Z,3.95
2022-08-07T18:32:29.979Z,9.15
2022-08-07T18:35:20.568Z,5.30
2022-08-07T18:38:59.263Z,4.32
2022-08-07T18:41:44.619Z,5.30
2022-08-07T18:44:18.551Z,3.05
2022-08-07T18:47:05.968Z,4.65
2022-08-07T18:50:30.131Z,4.03
2022-08-07T18:53:00.245Z,5.45
2022-08-07T18:55:55.940Z,9.90
2022-08-07T18:58:33.069Z,3.10
2022-08-07T19:02:19.415Z,2.53
2022-08-07T19:04:09.854Z,5.93
2022-08-07T19:06:53.265Z,8.82
2022-08-07T19:09:56.148Z,7.25
2022-08-07T19:12:27.682Z,14.75
2022-08-07T19:16:02.760Z,4.22
2022-08-07T19:18:35.006Z,6.63
2022-08-07T19:21:46.533Z,9.98
2022-08-07T19:24:30.946Z,7.00
2022-08-07T19:28:56.497Z,13.18
2022-08-07T19:31:06.373Z,9.48
2022-08-07T19:32:59.099Z,10.18
2022-08-07T19:35:33.327Z,11.50
2022-08-07T19:38:03.477Z,4.43
2022-08-07T19:40:37.912Z,7.38
2022-08-07T19:43:44.023Z,5.95
2022-08-07T19:46:14.656Z,7.82
2022-08-07T19:48:53.846Z,10.43
2022-08-07T19:51:52.323Z,7.18
2022-08-07T19:54:31.864Z,5.72
2022-08-07T19:58:02.615Z,6.72
2022-08-07T19:59:55.314Z,4.40
2022-08-07T20:02:38.902Z,6.63
2022-08-07T20:05:08.794Z,6.65
2022-08-07T20:07:47.825Z,4.57
2022-08-07T20:10:35.702Z,4.82
2022-08-07T20:13:26.944Z,4.22
2022-08-07T20:16:00.878Z,4.32
2022-08-07T20:18:33.338Z,6.10
2022-08-07T20:21:21.350Z,7.85
2022-08-07T20:24:00.372Z,4.82
2022-08-07T20:26:38.569Z,2.35
2022-08-07T20:29:17.101Z,8.13
2022-08-07T20:34:49.376Z,4.85
2022-08-07T20:37:20.613Z,6.50
2022-08-07T20:40:02.756Z,4.57
2022-08-07T20:42:32.332Z,6.90
2022-08-07T20:45:01.370Z,6.80
2022-08-07T20:47:56.542Z,5.32
2022-08-07T20:50:21.329Z,8.45
2022-08-07T20:52:51.490Z,9.77
2022-08-07T20:55:23.866Z,10.32
2022-08-07T20:58:04.164Z,6.53
2022-08-07T21:00:46.124Z,4.82
2022-08-07T21:03:19.294Z,6.80
2022-08-07T21:06:21.418Z,7.80
2022-08-07T21:09:00.948Z,7.38
2022-08-07T21:11:46.256Z,8.45
2022-08-07T21:14:34.507Z,4.10
2022-08-07T21:18:02.841Z,7.85
2022-08-07T21:20:04.578Z,5.07
2022-08-07T21:22:51.315Z,12.68
2022-08-07T21:25:58.415Z,5.97
2022-08-07T21:28:48.479Z,12.10
2022-08-07T21:32:43.866Z,8.82
2022-08-07T21:37:57.243Z,9.25
2022-08-07T21:40:38.973Z,7.85
2022-08-07T21:43:22.797Z,11.57
2022-08-07T21:46:08.909Z,6.07
2022-08-07T21:48:56.621Z,7.55
2022-08-07T21:51:50.990Z,4.93
2022-08-07T21:54:33.729Z,9.45
2022-08-07T21:57:40.059Z,6.90
2022-08-07T22:00:21.999Z,7.38
2022-08-07T22:02:54.993Z,16.95
2022-08-07T22:05:45.748Z,12.80
2022-08-07T22:08:18.842Z,14.52
2022-08-07T22:10:59.532Z,23.25
2022-08-07T22:13:52.740Z,11.20
2022-08-07T22:16:39.459Z,12.50
2022-08-07T22:19:23.796Z,14.20
2022-08-07T22:22:18.170Z,5.65
2022-08-07T22:25:15.115Z,9.50
2022-08-07T22:28:20.006Z,10.07
2022-08-07T22:31:12.194Z,8.23
2022-08-07T22:34:38.512Z,6.90
2022-08-07T22:37:22.729Z,7.75
2022-08-07T22:40:04.840Z,11.25
2022-08-07T22:42:35.136Z,22.92
2022-08-07T22:45:11.067Z,17.60
2022-08-07T22:48:54.399Z,9.55
2022-08-07T22:51:36.795Z,11.27
2022-08-07T22:54:31.724Z,15.43
2022-08-07T22:57:05.604Z,12.02
2022-08-07T22:59:32.491Z,7.15
2022-08-07T23:02:15.418Z,5.75
2022-08-07T23:06:10.341Z,7.30
2022-08-07T23:08:07.254Z,5.72
2022-08-07T23:11:20.999Z,6.10
2022-08-07T23:14:10.529Z,10.52
2022-08-07T23:16:55.566Z,8.05
2022-08-07T23:19:51.308Z,7.85
2022-08-07T23:22:47.076Z,6.97
2022-08-07T23:25:49.141Z,7.65
2022-08-07T23:28:29.587Z,6.00
2022-08-07T23:31:42.546Z,9.55
2022-08-07T23:34:39.635Z,11.13
2022-08-07T23:37:19.531Z,6.13
2022-08-07T23:40:14.658Z,4.15
2022-08-07T23:43:16.726Z,8.27
2022-08-07T23:46:15.291Z,7.32
2022-08-07T23:49:06.095Z,6.82
2022-08-07T23:53:15.383Z,6.80
2022-08-07T23:54:53.744Z,8.20
2022-08-07T23:57:39.026Z,9.73
